createdAt,value
2023-02-25T00:02:03.811Z,10.90
2023-02-25T00:04:53.249Z,11.20
2023-02-25T00:07:43.220Z,10.60
2023-02-25T00:10:33.494Z,10.40
2023-02-25T00:13:23.505Z,10.80
2023-02-25T00:16:14.010Z,10.90
2023-02-25T00:19:03.650Z,10.90
2023-02-25T00:21:52.801Z,11.00
2023-02-25T00:24:42.464Z,11.10
2023-02-25T00:27:32.521Z,9.60
2023-02-25T00:30:22.583Z,9.40
2023-02-25T00:33:12.710Z,9.10
2023-02-25T00:36:07.957Z,9.00
2023-02-25T00:38:58.229Z,8.00
2023-02-25T00:41:47.358Z,7.90
2023-02-25T00:47:26.584Z,8.30
2023-02-25T00:50:15.705Z,8.50
2023-02-25T00:53:05.223Z,7.90
2023-02-25T00:56:00.704Z,8.60
2023-02-25T00:58:51.162Z,8.90
2023-02-25T01:01:40.477Z,8.60
2023-02-25T01:04:29.599Z,7.80
2023-02-25T01:10:10.383Z,8.50
2023-02-25T01:12:59.269Z,7.40
2023-02-25T01:15:48.662Z,7.50
2023-02-25T01:18:39.908Z,8.20
2023-02-25T01:21:31.582Z,8.30
2023-02-25T01:24:24.185Z,7.40
2023-02-25T01:27:13.684Z,7.10
2023-02-25T01:30:09.273Z,6.40
2023-02-25T01:32:58.578Z,6.20
2023-02-25T01:35:47.742Z,6.90
2023-02-25T01:38:37.447Z,6.90
2023-02-25T01:41:28.060Z,5.70
2023-02-25T01:44:19.149Z,7.00
2023-02-25T01:47:19.323Z,6.60
2023-02-25T01:50:11.585Z,5.60
2023-02-25T01:53:04.087Z,6.10
2023-02-25T01:55:55.202Z,7.20
2023-02-25T01:58:38.491Z,7.00
2023-02-25T02:01:32.096Z,6.80
2023-02-25T02:04:23.069Z,6.70
2023-02-25T02:07:13.853Z,7.20
2023-02-25T02:10:03.877Z,6.60
2023-02-25T02:12:54.379Z,6.70
2023-02-25T02:15:52.282Z,6.70
2023-02-25T02:18:48.305Z,5.90
2023-02-25T02:21:57.177Z,6.60
2023-02-25T02:25:24.073Z,7.50
2023-02-25T02:28:38.101Z,6.60
2023-02-25T02:31:50.642Z,7.60
2023-02-25T02:34:50.179Z,7.40
2023-02-25T02:37:47.269Z,7.00
2023-02-25T02:40:45.363Z,7.50
2023-02-25T02:43:43.505Z,6.20
2023-02-25T02:46:38.597Z,7.60
2023-02-25T02:49:33.048Z,7.20
2023-02-25T02:52:26.878Z,7.00
2023-02-25T02:55:21.842Z,7.50
2023-02-25T02:58:16.154Z,7.40
2023-02-25T03:01:09.304Z,7.20
2023-02-25T03:04:02.726Z,6.70
2023-02-25T03:06:57.792Z,6.70
2023-02-25T03:09:50.093Z,7.20
2023-02-25T03:12:40.949Z,6.80
2023-02-25T03:15:32.242Z,7.50
2023-02-25T03:18:29.534Z,6.40
2023-02-25T03:21:23.794Z,7.30
2023-02-25T03:24:21.709Z,6.90
2023-02-25T03:27:26.932Z,7.10
2023-02-25T03:30:39.345Z,7.10
2023-02-25T03:33:35.959Z,6.60
2023-02-25T03:36:31.617Z,7.60
2023-02-25T03:39:16.645Z,7.00
2023-02-25T03:42:17.195Z,7.20
2023-02-25T03:45:11.353Z,6.00
2023-02-25T03:48:00.432Z,8.10
2023-02-25T03:50:54.210Z,6.70
2023-02-25T03:53:43.885Z,7.20
2023-02-25T03:56:53.123Z,7.20
2023-02-25T03:59:42.070Z,6.90
2023-02-25T04:05:27.264Z,6.20
2023-02-25T04:08:16.337Z,5.90
2023-02-25T04:11:05.760Z,6.20
2023-02-25T04:13:56.659Z,6.70
2023-02-25T04:16:45.781Z,6.80
2023-02-25T04:22:24.385Z,5.90
2023-02-25T04:25:15.721Z,6.00
2023-02-25T04:30:52.898Z,5.80
2023-02-25T04:33:43.637Z,7.20
2023-02-25T04:36:35.390Z,6.50
2023-02-25T04:39:24.485Z,6.40
2023-02-25T04:42:13.743Z,6.70
2023-02-25T04:45:17.761Z,6.20
2023-02-25T04:48:08.679Z,5.40
2023-02-25T04:51:02.547Z,6.70
2023-02-25T04:53:51.753Z,6.40
2023-02-25T04:56:41.240Z,6.70
2023-02-25T04:59:30.311Z,4.20
2023-02-25T05:02:20.030Z,5.30
2023-02-25T05:05:10.177Z,6.20
2023-02-25T05:07:59.587Z,4.60
2023-02-25T05:10:49.990Z,6.80
2023-02-25T05:13:38.933Z,6.10
2023-02-25T05:16:28.140Z,5.90
2023-02-25T05:19:18.158Z,5.60
2023-02-25T05:22:10.063Z,5.70
2023-02-25T05:24:52.662Z,6.40
2023-02-25T05:27:45.002Z,5.90
2023-02-25T05:30:33.995Z,6.40
2023-02-25T05:36:14.282Z,4.60
2023-02-25T05:39:03.522Z,4.90
2023-02-25T05:44:41.328Z,5.40
2023-02-25T05:47:30.492Z,4.20
2023-02-25T05:50:19.763Z,5.60
2023-02-25T05:53:09.637Z,7.70
2023-02-25T05:55:59.536Z,7.40
2023-02-25T05:58:48.885Z,6.70
2023-02-25T06:01:39.081Z,6.80
2023-02-25T06:04:29.241Z,6.20
2023-02-25T06:07:18.863Z,7.00
2023-02-25T06:10:11.496Z,7.10
2023-02-25T06:13:00.830Z,6.50
2023-02-25T06:15:49.902Z,6.60
2023-02-25T06:18:40.562Z,6.60
2023-02-25T06:21:30.570Z,7.20
2023-02-25T06:24:19.821Z,6.30
2023-02-25T06:27:01.473Z,7.10
2023-02-25T06:29:50.992Z,7.10
2023-02-25T06:32:40.188Z,6.80
2023-02-25T06:35:29.097Z,6.70
2023-02-25T06:38:18.003Z,7.00
2023-02-25T06:40:57.310Z,7.80
2023-02-25T06:43:51.391Z,7.90
2023-02-25T06:46:41.060Z,7.90
2023-02-25T06:49:30.797Z,8.20
2023-02-25T06:52:21.048Z,7.40
2023-02-25T06:57:59.073Z,7.60
2023-02-25T07:00:48.095Z,8.20
2023-02-25T07:03:38.969Z,7.60
2023-02-25T07:06:28.559Z,7.60
2023-02-25T07:09:18.807Z,8.10
2023-02-25T07:12:08.077Z,9.10
2023-02-25T07:14:57.663Z,7.70
2023-02-25T07:17:47.132Z,8.00
2023-02-25T07:20:38.648Z,16.70
2023-02-25T07:23:27.668Z,11.00
2023-02-25T07:26:17.864Z,10.20
2023-02-25T07:29:07.285Z,14.60
2023-02-25T07:31:57.019Z,12.10
2023-02-25T07:34:46.365Z,10.20
2023-02-25T07:37:35.418Z,11.00
2023-02-25T07:43:12.444Z,8.70
2023-02-25T07:46:01.698Z,10.60
2023-02-25T07:48:50.944Z,9.30
2023-02-25T07:51:40.103Z,8.10
2023-02-25T07:54:29.517Z,8.40
2023-02-25T07:57:18.657Z,7.90
2023-02-25T08:00:11.034Z,8.30
2023-02-25T08:02:54.492Z,7.90
2023-02-25T08:05:43.720Z,8.60
2023-02-25T08:08:32.807Z,9.50
2023-02-25T08:14:11.660Z,7.20
2023-02-25T08:17:01.699Z,7.90
2023-02-25T08:19:53.009Z,7.90
2023-02-25T08:22:42.324Z,8.60
2023-02-25T08:28:20.377Z,8.00
2023-02-25T08:31:11.669Z,7.60
2023-02-25T08:34:01.471Z,9.00
2023-02-25T08:36:50.398Z,7.50
2023-02-25T08:39:39.709Z,7.80
2023-02-25T08:42:28.522Z,8.30
2023-02-25T08:45:17.646Z,7.90
2023-02-25T08:48:06.747Z,7.80
2023-02-25T08:50:55.997Z,8.50
2023-02-25T08:53:46.647Z,7.10
2023-02-25T08:56:39.709Z,18.40
2023-02-25T08:59:28.635Z,39.40
2023-02-25T09:02:18.219Z,105.30
2023-02-25T09:05:09.017Z,127.00
2023-02-25T09:07:58.472Z,130.40
2023-02-25T09:10:50.803Z,38.10
2023-02-25T09:13:39.994Z,24.20
2023-02-25T09:16:31.236Z,8.30
2023-02-25T09:19:20.620Z,9.40
2023-02-25T09:22:10.365Z,7.50
2023-02-25T09:24:59.610Z,7.30
2023-02-25T09:27:48.892Z,7.70
2023-02-25T09:30:39.659Z,8.00
2023-02-25T09:33:30.142Z,8.70
2023-02-25T09:36:21.870Z,10.20
2023-02-25T09:39:10.885Z,9.80
2023-02-25T09:42:08.810Z,12.20
2023-02-25T09:45:04.188Z,10.60
2023-02-25T09:47:57.548Z,6.60
2023-02-25T09:50:52.020Z,8.70
2023-02-25T09:53:47.831Z,11.20
2023-02-25T09:56:38.404Z,13.60
2023-02-25T09:59:29.101Z,10.60
2023-02-25T10:02:27.422Z,9.10
2023-02-25T10:05:25.968Z,6.70
2023-02-25T10:08:21.901Z,6.90
2023-02-25T10:11:33.539Z,5.30
2023-02-25T10:14:44.572Z,6.70
2023-02-25T10:17:45.308Z,13.40
2023-02-25T10:20:46.761Z,7.80
2023-02-25T10:23:48.046Z,3.40
2023-02-25T10:26:41.101Z,2.10
2023-02-25T10:29:38.259Z,2.10
2023-02-25T10:32:31.698Z,2.70
2023-02-25T10:35:24.962Z,3.50
2023-02-25T10:38:14.172Z,3.60
2023-02-25T10:41:05.007Z,2.90
2023-02-25T10:43:56.268Z,3.20
2023-02-25T10:46:51.145Z,3.40
2023-02-25T10:49:40.034Z,3.60
2023-02-25T10:55:28.513Z,4.60
2023-02-25T10:58:28.073Z,3.30
2023-02-25T11:01:20.148Z,4.50
2023-02-25T11:04:14.112Z,2.50
2023-02-25T11:07:24.050Z,3.10
2023-02-25T11:10:19.926Z,3.70
2023-02-25T11:13:30.685Z,5.10
2023-02-25T11:16:20.173Z,6.80
2023-02-25T11:19:17.644Z,6.50
2023-02-25T11:22:15.731Z,5.70
2023-02-25T11:25:16.747Z,8.70
2023-02-25T11:28:08.038Z,5.50
2023-02-25T11:31:07.268Z,5.90
2023-02-25T11:34:00.545Z,6.50
2023-02-25T11:36:51.271Z,5.30
2023-02-25T11:39:53.449Z,4.90
2023-02-25T11:42:43.251Z,8.00
2023-02-25T11:45:34.593Z,5.10
2023-02-25T11:48:27.648Z,6.40
2023-02-25T11:51:25.537Z,8.50
2023-02-25T11:54:24.915Z,6.00
2023-02-25T11:57:20.047Z,4.60
2023-02-25T12:00:25.040Z,5.00
2023-02-25T12:03:34.916Z,3.50
2023-02-25T12:06:37.563Z,2.60
2023-02-25T12:09:56.333Z,4.10
2023-02-25T12:13:24.606Z,2.70
2023-02-25T12:17:00.994Z,4.80
2023-02-25T12:20:26.125Z,2.80
2023-02-25T12:23:43.864Z,4.00
2023-02-25T12:26:51.451Z,3.40
2023-02-25T12:30:07.964Z,5.80
2023-02-25T12:33:10.057Z,4.60
2023-02-25T12:36:18.329Z,2.70
2023-02-25T12:39:43.715Z,4.20
2023-02-25T12:42:48.863Z,4.20
2023-02-25T12:45:53.180Z,4.10
2023-02-25T12:48:59.975Z,4.60
2023-02-25T12:52:14.064Z,4.60
2023-02-25T12:55:44.686Z,5.50
2023-02-25T12:58:50.371Z,6.10
2023-02-25T13:01:51.022Z,4.70
2023-02-25T13:05:12.695Z,2.70
2023-02-25T13:08:34.934Z,2.70
2023-02-25T13:11:34.585Z,1.80
2023-02-25T13:14:43.574Z,3.20
2023-02-25T13:17:49.069Z,3.50
2023-02-25T13:21:05.883Z,3.50
2023-02-25T13:24:32.290Z,4.00
2023-02-25T13:27:58.436Z,4.20
2023-02-25T13:30:57.478Z,8.30
2023-02-25T13:34:06.240Z,7.60
2023-02-25T13:37:21.315Z,3.60
2023-02-25T13:40:31.439Z,2.90
2023-02-25T13:43:47.884Z,3.00
2023-02-25T13:47:07.758Z,1.60
2023-02-25T13:50:28.511Z,5.70
2023-02-25T13:53:59.420Z,3.50
2023-02-25T13:57:01.457Z,3.30
2023-02-25T14:00:35.437Z,2.70
2023-02-25T14:03:44.671Z,1.90
2023-02-25T14:06:43.224Z,6.40
2023-02-25T14:09:40.294Z,4.10
2023-02-25T14:12:45.354Z,2.20
2023-02-25T14:15:47.540Z,3.90
2023-02-25T14:18:53.143Z,2.30
2023-02-25T14:22:01.715Z,9.60
2023-02-25T14:25:02.707Z,11.70
2023-02-25T14:28:07.899Z,9.20
2023-02-25T14:31:10.343Z,5.70
2023-02-25T14:34:11.278Z,12.40
2023-02-25T14:37:22.629Z,8.00
2023-02-25T14:40:27.086Z,14.80
2023-02-25T14:43:29.556Z,10.30
2023-02-25T14:46:33.904Z,14.30
2023-02-25T14:49:29.953Z,7.60
2023-02-25T14:52:40.303Z,9.10
2023-02-25T14:59:03.445Z,2.30
2023-02-25T15:02:15.438Z,2.90
2023-02-25T15:05:32.232Z,4.40
2023-02-25T15:08:45.656Z,8.50
2023-02-25T15:11:58.737Z,4.90
2023-02-25T15:15:25.283Z,3.00
2023-02-25T15:18:52.777Z,3.10
2023-02-25T15:21:47.877Z,4.00
2023-02-25T15:24:41.461Z,3.30
2023-02-25T15:27:49.703Z,4.60
2023-02-25T15:31:10.930Z,3.10
2023-02-25T15:34:38.319Z,6.90
2023-02-25T15:37:39.569Z,3.80
2023-02-25T15:40:50.869Z,6.70
2023-02-25T15:43:44.007Z,6.70
2023-02-25T15:46:43.256Z,7.00
2023-02-25T15:49:35.188Z,7.60
2023-02-25T15:52:59.251Z,9.10
2023-02-25T15:55:51.614Z,12.00
2023-02-25T15:58:56.583Z,16.00
2023-02-25T16:01:45.853Z,10.10
2023-02-25T16:04:49.929Z,9.70
2023-02-25T16:07:43.691Z,9.20
2023-02-25T16:10:42.653Z,9.10
2023-02-25T16:13:34.202Z,10.40
2023-02-25T16:16:27.890Z,11.30
2023-02-25T16:19:16.422Z,7.70
2023-02-25T16:22:12.720Z,7.30
2023-02-25T16:25:03.279Z,8.60
2023-02-25T16:28:03.909Z,7.80
2023-02-25T16:31:01.751Z,8.30
2023-02-25T16:33:58.359Z,5.30
2023-02-25T16:36:54.628Z,5.50
2023-02-25T16:39:45.115Z,6.30
2023-02-25T16:42:35.738Z,6.20
2023-02-25T16:45:28.971Z,6.90
2023-02-25T16:48:31.787Z,4.70
2023-02-25T16:51:31.373Z,3.70
2023-02-25T16:54:24.777Z,5.40
2023-02-25T16:57:24.144Z,3.50
2023-02-25T17:00:20.816Z,3.60
2023-02-25T17:03:11.880Z,4.40
2023-02-25T17:06:05.778Z,3.00
2023-02-25T17:08:54.958Z,2.70
2023-02-25T17:11:53.883Z,3.70
2023-02-25T17:14:46.926Z,4.50
2023-02-25T17:17:40.039Z,4.90
2023-02-25T17:20:29.491Z,6.40
2023-02-25T17:23:21.178Z,5.20
2023-02-25T17:26:14.064Z,10.10
2023-02-25T17:29:09.620Z,18.20
2023-02-25T17:32:00.397Z,6.40
2023-02-25T17:34:54.399Z,15.40
2023-02-25T17:37:46.224Z,10.30
2023-02-25T17:40:30.117Z,8.80
2023-02-25T17:43:23.070Z,7.90
2023-02-25T17:46:27.882Z,4.40
2023-02-25T17:49:34.988Z,5.80
2023-02-25T17:52:25.466Z,4.20
2023-02-25T17:55:25.742Z,5.60
2023-02-25T17:58:40.099Z,4.50
2023-02-25T18:01:47.892Z,4.70
2023-02-25T18:04:40.293Z,5.50
2023-02-25T18:07:32.186Z,3.90
2023-02-25T18:10:46.583Z,4.80
2023-02-25T18:13:38.494Z,6.50
2023-02-25T18:16:45.219Z,4.30
2023-02-25T18:19:39.945Z,4.90
2023-02-25T18:22:34.603Z,5.50
2023-02-25T18:25:32.098Z,4.60
2023-02-25T18:28:22.264Z,5.30
2023-02-25T18:31:11.293Z,4.70
2023-02-25T18:34:00.465Z,6.10
2023-02-25T18:36:49.711Z,5.30
2023-02-25T18:39:39.676Z,5.50
2023-02-25T18:42:30.668Z,7.80
2023-02-25T18:45:22.283Z,6.50
2023-02-25T18:48:12.471Z,8.30
2023-02-25T18:51:12.148Z,11.60
2023-02-25T18:53:54.453Z,12.30
2023-02-25T18:56:40.388Z,15.10
2023-02-25T18:59:29.985Z,10.60
2023-02-25T19:02:29.851Z,14.40
2023-02-25T19:05:22.359Z,13.30
2023-02-25T19:08:14.870Z,10.90
2023-02-25T19:11:05.542Z,7.70
2023-02-25T19:14:03.876Z,6.70
2023-02-25T19:16:51.751Z,4.10
2023-02-25T19:19:46.388Z,5.60
2023-02-25T19:22:40.808Z,4.20
2023-02-25T19:25:33.752Z,2.60
2023-02-25T19:28:22.881Z,3.30
2023-02-25T19:31:12.299Z,5.40
2023-02-25T19:34:01.554Z,4.30
2023-02-25T19:36:50.724Z,4.50
2023-02-25T19:39:41.637Z,3.40
2023-02-25T19:42:30.734Z,2.80
2023-02-25T19:48:11.417Z,4.00
2023-02-25T19:50:49.983Z,2.70
2023-02-25T19:53:39.924Z,2.50
2023-02-25T19:56:29.119Z,3.20
2023-02-25T20:02:13.702Z,3.10
2023-02-25T20:05:02.692Z,2.30
2023-02-25T20:10:34.727Z,3.40
2023-02-25T20:16:12.292Z,1.60
2023-02-25T20:21:50.022Z,3.20
2023-02-25T20:24:40.738Z,3.90
2023-02-25T20:30:18.310Z,3.80
2023-02-25T20:33:07.442Z,9.10
2023-02-25T20:35:56.753Z,4.10
2023-02-25T20:39:00.672Z,4.00
2023-02-25T20:41:50.151Z,5.30
2023-02-25T20:44:41.781Z,4.90
2023-02-25T20:47:37.545Z,3.60
2023-02-25T20:50:30.628Z,5.00
2023-02-25T20:53:21.631Z,2.70
2023-02-25T20:56:14.139Z,2.90
2023-02-25T20:59:03.093Z,5.10
2023-02-25T21:01:53.562Z,5.70
2023-02-25T21:04:43.819Z,3.40
2023-02-25T21:07:33.395Z,3.00
2023-02-25T21:10:24.241Z,2.20
2023-02-25T21:13:15.559Z,2.90
2023-02-25T21:16:07.955Z,2.60
2023-02-25T21:18:57.760Z,3.30
2023-02-25T21:21:47.215Z,3.40
2023-02-25T21:24:37.624Z,3.00
2023-02-25T21:27:28.699Z,3.60
2023-02-25T21:30:11.234Z,2.10
2023-02-25T21:33:00.397Z,1.40
2023-02-25T21:35:53.974Z,3.20
2023-02-25T21:38:44.486Z,3.70
2023-02-25T21:41:34.055Z,1.70
2023-02-25T21:44:24.023Z,2.40
2023-02-25T21:47:17.229Z,2.10
2023-02-25T21:50:09.262Z,2.70
2023-02-25T21:52:50.839Z,1.20
2023-02-25T21:55:40.093Z,2.50
2023-02-25T21:58:29.254Z,1.40
2023-02-25T22:01:24.874Z,2.80
2023-02-25T22:04:18.446Z,3.20
2023-02-25T22:07:08.804Z,3.60
2023-02-25T22:10:00.444Z,3.40
2023-02-25T22:12:53.250Z,3.80
2023-02-25T22:15:52.396Z,3.70
2023-02-25T22:18:42.834Z,3.20
2023-02-25T22:21:33.437Z,3.00
2023-02-25T22:24:23.774Z,2.20
2023-02-25T22:27:13.794Z,1.90
2023-02-25T22:30:04.824Z,2.30
2023-02-25T22:32:55.041Z,2.80
2023-02-25T22:36:04.643Z,2.40
2023-02-25T22:38:56.189Z,2.60
2023-02-25T22:41:50.067Z,2.50
2023-02-25T22:44:40.925Z,3.10
2023-02-25T22:47:30.843Z,2.50
2023-02-25T22:50:21.855Z,2.70
2023-02-25T22:53:12.853Z,2.90
2023-02-25T22:56:03.258Z,2.50
2023-02-25T22:58:54.700Z,2.70
2023-02-25T23:01:47.213Z,1.60
2023-02-25T23:04:39.050Z,2.10
2023-02-25T23:07:28.251Z,2.00
2023-02-25T23:10:20.675Z,1.60
2023-02-25T23:13:11.147Z,2.20
2023-02-25T23:16:03.493Z,1.80
2023-02-25T23:18:53.879Z,2.20
2023-02-25T23:21:43.638Z,2.00
2023-02-25T23:24:33.982Z,1.80
2023-02-25T23:27:24.746Z,1.80
2023-02-25T23:30:15.113Z,2.40
2023-02-25T23:33:04.966Z,1.90
2023-02-25T23:35:55.716Z,2.10
2023-02-25T23:38:44.663Z,1.60
2023-02-25T23:41:38.550Z,2.40
2023-02-25T23:44:20.189Z,2.20
2023-02-25T23:52:48.600Z,1.40
2023-02-25T23:55:40.505Z,1.80
2023-02-25T23:58:30.095Z,1.80
